createdAt,value
2019-05-30T00:00:33.877Z,58.64
2019-05-30T00:05:37.905Z,58.56
2019-05-30T00:15:51.791Z,59.16
2019-05-30T00:20:56.733Z,58.92
2019-05-30T00:26:01.377Z,59.25
2019-05-30T00:31:06.612Z,59.25
2019-05-30T00:36:10.761Z,59.23
2019-05-30T00:41:14.973Z,59.55
2019-05-30T00:46:18.993Z,59.86
2019-05-30T00:51:23.251Z,59.88
2019-05-30T00:56:27.230Z,60.30
2019-05-30T01:01:31.360Z,60.30
2019-05-30T01:06:35.396Z,60.32
2019-05-30T01:11:39.402Z,60.61
2019-05-30T01:16:43.427Z,60.88
2019-05-30T01:21:47.629Z,60.88
2019-05-30T01:26:51.755Z,60.84
2019-05-30T01:31:55.781Z,61.48
2019-05-30T01:36:59.891Z,61.55
2019-05-30T01:42:04.047Z,61.36
2019-05-30T01:47:08.399Z,61.91
2019-05-30T01:52:13.138Z,62.10
2019-05-30T01:57:17.292Z,62.24
2019-05-30T02:02:21.331Z,62.24
2019-05-30T02:07:25.370Z,62.44
2019-05-30T02:12:29.517Z,62.44
2019-05-30T02:17:33.740Z,62.49
2019-05-30T02:22:37.861Z,62.90
2019-05-30T02:27:41.941Z,63.31
2019-05-30T02:32:46.072Z,63.32
2019-05-30T02:37:50.231Z,63.01
2019-05-30T02:42:54.325Z,63.51
2019-05-30T02:47:58.444Z,63.51
2019-05-30T02:53:03.662Z,63.40
2019-05-30T02:58:10.236Z,63.73
2019-05-30T03:03:14.911Z,64.13
2019-05-30T03:08:19.261Z,63.86
2019-05-30T03:13:23.645Z,64.36
2019-05-30T03:18:27.817Z,64.49
2019-05-30T03:23:32.173Z,64.54
2019-05-30T03:28:36.364Z,64.11
2019-05-30T03:33:42.909Z,64.11
2019-05-30T03:38:46.558Z,64.07
2019-05-30T03:43:50.630Z,64.45
2019-05-30T03:48:55.941Z,64.52
2019-05-30T03:54:01.822Z,64.72
2019-05-30T03:59:21.252Z,64.24
2019-05-30T04:04:29.425Z,64.24
2019-05-30T04:09:35.862Z,64.53
2019-05-30T04:14:42.966Z,64.81
2019-05-30T04:19:47.009Z,64.45
2019-05-30T04:24:51.040Z,64.91
2019-05-30T04:29:55.106Z,64.57
2019-05-30T04:34:59.151Z,64.69
2019-05-30T04:40:03.321Z,64.92
2019-05-30T04:45:09.492Z,65.22
2019-05-30T04:50:15.796Z,65.15
2019-05-30T04:55:22.814Z,65.33
2019-05-30T05:00:26.284Z,65.06
2019-05-30T05:05:30.308Z,65.06
2019-05-30T05:10:34.431Z,64.84
2019-05-30T05:15:38.538Z,65.21
2019-05-30T05:20:42.654Z,65.32
2019-05-30T05:25:59.832Z,65.32
2019-05-30T05:30:52.437Z,65.05
2019-05-30T05:35:56.536Z,65.29
2019-05-30T05:41:00.558Z,65.23
2019-05-30T05:46:04.667Z,64.94
2019-05-30T05:51:08.766Z,65.69
2019-05-30T05:56:12.883Z,65.27
2019-05-30T06:01:17.345Z,65.54
2019-05-30T06:06:21.574Z,65.74
2019-05-30T06:11:25.594Z,65.27
2019-05-30T06:16:29.636Z,65.59
2019-05-30T06:21:33.670Z,65.74
2019-05-30T06:26:37.712Z,65.32
2019-05-30T06:31:41.840Z,65.47
2019-05-30T06:36:45.876Z,65.48
2019-05-30T06:41:49.894Z,65.48
2019-05-30T06:46:54.088Z,65.26
2019-05-30T06:51:58.197Z,64.31
2019-05-30T06:57:02.296Z,63.81
2019-05-30T07:02:06.775Z,63.46
2019-05-30T07:07:11.003Z,51.10
2019-05-30T07:12:15.368Z,51.63
2019-05-30T07:17:23.166Z,50.65
2019-05-30T07:22:27.730Z,53.28
2019-05-30T07:27:32.098Z,53.41
2019-05-30T07:32:36.270Z,53.51
2019-05-30T07:37:40.313Z,54.26
2019-05-30T07:42:44.364Z,54.26
2019-05-30T07:47:48.392Z,55.02
2019-05-30T07:52:52.551Z,55.64
2019-05-30T07:57:56.731Z,55.64
2019-05-30T08:03:00.777Z,55.89
2019-05-30T08:08:04.945Z,55.57
2019-05-30T08:13:09.190Z,56.14
2019-05-30T08:18:13.273Z,55.60
2019-05-30T08:23:17.336Z,55.83
2019-05-30T08:28:21.475Z,51.21
2019-05-30T08:33:25.576Z,49.94
2019-05-30T08:38:30.937Z,50.71
2019-05-30T08:43:35.597Z,52.24
2019-05-30T08:48:40.392Z,52.08
2019-05-30T08:53:44.541Z,52.89
2019-05-30T08:58:48.562Z,53.48
2019-05-30T09:03:52.779Z,53.48
2019-05-30T09:08:56.923Z,50.26
2019-05-30T09:14:01.015Z,46.59
2019-05-30T09:19:05.806Z,49.47
2019-05-30T09:24:09.963Z,49.62
2019-05-30T09:29:14.140Z,49.62
2019-05-30T09:34:18.148Z,49.70
2019-05-30T09:39:22.231Z,48.06
2019-05-30T09:44:26.229Z,48.06
2019-05-30T09:49:30.293Z,49.37
2019-05-30T09:54:34.315Z,48.48
2019-05-30T09:59:38.308Z,48.42
2019-05-30T10:04:43.527Z,47.80
2019-05-30T10:09:48.885Z,46.48
2019-05-30T10:14:53.226Z,46.48
2019-05-30T10:19:57.346Z,45.64
2019-05-30T10:25:01.339Z,48.71
2019-05-30T10:30:07.667Z,48.71
2019-05-30T10:35:13.080Z,47.23
2019-05-30T10:40:18.647Z,47.23
2019-05-30T10:45:24.731Z,45.50
2019-05-30T10:50:28.839Z,44.39
2019-05-30T10:55:33.027Z,44.39
2019-05-30T11:00:47.241Z,45.89
2019-05-30T11:05:59.266Z,45.89
2019-05-30T11:11:03.317Z,45.24
2019-05-30T11:16:07.340Z,44.89
2019-05-30T11:21:11.456Z,44.55
2019-05-30T11:26:15.538Z,44.55
2019-05-30T11:31:19.653Z,44.02
2019-05-30T11:36:26.895Z,43.39
2019-05-30T11:41:30.913Z,46.87
2019-05-30T11:46:35.012Z,46.87
2019-05-30T11:51:39.003Z,47.88
2019-05-30T11:56:43.164Z,48.46
2019-05-30T12:01:47.296Z,48.92
2019-05-30T12:06:52.746Z,49.57
2019-05-30T12:11:57.418Z,49.57
2019-05-30T12:17:01.695Z,49.91
2019-05-30T12:22:05.971Z,50.72
2019-05-30T12:27:10.082Z,51.26
2019-05-30T12:32:14.085Z,51.34
2019-05-30T12:37:18.177Z,51.42
2019-05-30T12:42:22.187Z,51.66
2019-05-30T12:47:26.204Z,52.47
2019-05-30T12:52:30.286Z,52.38
2019-05-30T12:57:34.375Z,52.38
2019-05-30T13:02:38.521Z,52.82
2019-05-30T13:07:42.543Z,52.88
2019-05-30T13:12:46.653Z,52.97
2019-05-30T13:17:50.682Z,53.42
2019-05-30T13:22:56.171Z,53.42
2019-05-30T13:28:03.739Z,54.04
2019-05-30T13:33:06.949Z,54.45
2019-05-30T13:38:25.507Z,54.37
2019-05-30T13:43:16.894Z,54.19
2019-05-30T13:48:20.900Z,54.16
2019-05-30T13:53:24.939Z,54.17
2019-05-30T13:58:29.015Z,54.14
2019-05-30T14:03:33.080Z,54.22
2019-05-30T14:08:41.552Z,54.37
2019-05-30T14:13:42.931Z,54.39
2019-05-30T14:18:46.997Z,54.39
2019-05-30T14:23:51.012Z,54.04
2019-05-30T14:28:55.091Z,54.12
2019-05-30T14:33:59.124Z,54.34
2019-05-30T14:39:04.748Z,54.36
2019-05-30T14:44:09.015Z,54.43
2019-05-30T14:49:13.163Z,54.26
2019-05-30T14:54:17.506Z,54.58
2019-05-30T14:59:21.754Z,54.58
2019-05-30T15:04:25.762Z,54.98
2019-05-30T15:09:29.773Z,54.87
2019-05-30T15:14:33.884Z,55.03
2019-05-30T15:19:38.046Z,54.94
2019-05-30T15:24:42.092Z,55.07
2019-05-30T15:29:46.147Z,54.85
2019-05-30T15:34:50.175Z,54.92
2019-05-30T15:39:54.248Z,54.97
2019-05-30T15:44:58.551Z,54.86
2019-05-30T15:50:02.651Z,54.86
2019-05-30T15:55:07.306Z,55.28
2019-05-30T16:00:14.003Z,55.70
2019-05-30T16:05:18.773Z,55.69
2019-05-30T16:10:23.091Z,55.90
2019-05-30T16:15:27.189Z,55.96
2019-05-30T16:20:31.624Z,56.36
2019-05-30T16:25:35.873Z,56.36
2019-05-30T16:30:40.086Z,57.07
2019-05-30T16:35:44.571Z,56.52
2019-05-30T16:40:48.573Z,56.66
2019-05-30T16:45:52.574Z,56.92
2019-05-30T16:50:56.643Z,56.92
2019-05-30T16:56:00.648Z,57.08
2019-05-30T17:01:04.799Z,57.08
2019-05-30T17:06:08.857Z,56.38
2019-05-30T17:11:12.866Z,56.24
2019-05-30T17:16:17.793Z,55.45
2019-05-30T17:21:22.737Z,55.99
2019-05-30T17:26:27.414Z,56.50
2019-05-30T17:31:31.624Z,56.12
2019-05-30T17:36:35.632Z,56.08
2019-05-30T17:41:39.793Z,56.11
2019-05-30T17:46:43.833Z,55.72
2019-05-30T18:19:31.504Z,55.37
2019-05-30T18:24:35.728Z,54.95
2019-05-30T18:29:39.903Z,54.84
2019-05-30T18:34:43.990Z,54.56
2019-05-30T18:39:48.112Z,54.56
2019-05-30T18:44:52.266Z,54.93
2019-05-30T18:49:56.299Z,55.08
2019-05-30T18:55:00.426Z,52.92
2019-05-30T19:00:05.334Z,54.05
2019-05-30T19:10:36.848Z,54.25
2019-05-30T19:15:40.954Z,54.49
2019-05-30T19:20:44.990Z,54.85
2019-05-30T19:25:49.241Z,54.75
2019-05-30T19:30:53.328Z,54.75
2019-05-30T19:35:57.363Z,54.82
2019-05-30T19:41:01.582Z,55.01
2019-05-30T19:46:05.739Z,55.01
2019-05-30T19:51:09.756Z,55.20
2019-05-30T19:56:13.898Z,55.28
2019-05-30T20:06:28.169Z,55.46
2019-05-30T20:11:33.235Z,55.73
2019-05-30T20:16:37.873Z,55.73
2019-05-30T20:21:42.103Z,55.96
2019-05-30T20:26:46.273Z,56.49
2019-05-30T20:31:50.288Z,56.43
2019-05-30T20:36:54.291Z,56.34
2019-05-30T20:41:58.309Z,56.34
2019-05-30T20:47:02.312Z,56.52
2019-05-30T20:52:06.479Z,56.69
2019-05-30T20:57:10.614Z,56.69
2019-05-30T21:02:14.730Z,56.70
2019-05-30T21:07:20.632Z,56.91
2019-05-30T21:12:36.908Z,57.03
2019-05-30T21:17:34.145Z,57.10
2019-05-30T21:22:40.192Z,57.04
2019-05-30T21:27:45.233Z,57.09
2019-05-30T21:32:49.780Z,57.13
2019-05-30T21:37:53.990Z,57.50
2019-05-30T21:43:06.343Z,57.50
2019-05-30T21:48:04.166Z,57.57
2019-05-30T21:53:08.252Z,57.65
2019-05-30T21:58:12.262Z,57.70
2019-05-30T22:03:16.419Z,57.71
2019-05-30T22:08:20.526Z,57.71
2019-05-30T22:13:24.914Z,57.72
2019-05-30T22:18:28.929Z,57.74
2019-05-30T22:23:32.964Z,57.70
2019-05-30T22:28:37.004Z,57.61
2019-05-30T22:33:41.016Z,57.65
2019-05-30T22:38:45.118Z,57.84
2019-05-30T22:43:49.141Z,58.11
2019-05-30T22:48:53.192Z,58.11
2019-05-30T22:53:57.402Z,58.02
2019-05-30T22:59:01.526Z,58.26
2019-05-30T23:04:05.600Z,57.97
2019-05-30T23:09:09.841Z,57.97
2019-05-30T23:14:14.014Z,58.44
2019-05-30T23:19:18.041Z,58.30
2019-05-30T23:24:22.059Z,58.42
2019-05-30T23:29:26.074Z,58.61
2019-05-30T23:34:30.132Z,58.50
2019-05-30T23:39:34.177Z,58.61
2019-05-30T23:44:38.200Z,58.81
2019-05-30T23:49:42.269Z,58.81
2019-05-30T23:54:46.287Z,58.97
2019-05-30T23:59:50.657Z,59.23
